createdAt,value
2019-04-16T00:00:14.225Z,8.91
2019-04-16T00:01:15.008Z,8.88
2019-04-16T00:02:18.494Z,8.95
2019-04-16T00:03:14.040Z,8.91
2019-04-16T00:04:13.984Z,8.87
2019-04-16T00:05:13.960Z,8.99
2019-04-16T00:06:13.884Z,8.98
2019-04-16T00:07:13.827Z,8.95
2019-04-16T00:08:27.335Z,8.96
2019-04-16T00:09:13.721Z,8.95
2019-04-16T00:10:13.706Z,8.98
2019-04-16T00:11:13.611Z,8.96
2019-04-16T00:12:13.562Z,8.98
2019-04-16T00:13:13.534Z,9.00
2019-04-16T00:14:13.454Z,8.99
2019-04-16T00:15:13.426Z,8.95
2019-04-16T00:16:13.759Z,8.95
2019-04-16T00:17:15.782Z,8.96
2019-04-16T00:18:13.247Z,8.93
2019-04-16T00:19:13.191Z,8.88
2019-04-16T00:20:13.148Z,8.90
2019-04-16T00:21:13.073Z,8.82
2019-04-16T00:22:13.032Z,8.81
2019-04-16T00:23:12.971Z,8.85
2019-04-16T00:24:12.920Z,8.88
2019-04-16T00:25:12.890Z,8.78
2019-04-16T00:26:12.817Z,8.85
2019-04-16T00:27:12.767Z,8.82
2019-04-16T00:28:12.704Z,8.91
2019-04-16T00:29:12.650Z,8.93
2019-04-16T00:30:12.624Z,8.91
2019-04-16T00:31:12.545Z,8.82
2019-04-16T00:32:12.491Z,8.85
2019-04-16T00:33:12.442Z,8.77
2019-04-16T00:34:14.205Z,8.85
2019-04-16T00:35:15.436Z,8.80
2019-04-16T00:36:12.275Z,8.78
2019-04-16T00:37:12.226Z,8.80
2019-04-16T00:38:12.177Z,8.72
2019-04-16T00:39:12.119Z,8.75
2019-04-16T00:40:12.086Z,8.87
2019-04-16T00:41:12.006Z,8.72
2019-04-16T00:42:11.953Z,8.67
2019-04-16T00:43:11.907Z,8.67
2019-04-16T00:44:11.848Z,8.69
2019-04-16T00:45:11.823Z,8.69
2019-04-16T00:46:12.206Z,8.69
2019-04-16T00:47:11.691Z,8.69
2019-04-16T00:48:11.634Z,8.66
2019-04-16T00:49:11.583Z,8.60
2019-04-16T00:50:11.528Z,8.63
2019-04-16T00:51:11.492Z,8.60
2019-04-16T00:52:11.423Z,8.62
2019-04-16T00:53:11.365Z,8.67
2019-04-16T00:54:11.524Z,8.59
2019-04-16T00:55:13.658Z,8.60
2019-04-16T00:56:13.386Z,8.66
2019-04-16T00:57:11.153Z,8.63
2019-04-16T00:58:11.103Z,8.64
2019-04-16T00:59:11.050Z,8.62
2019-04-16T01:00:10.994Z,8.70
2019-04-16T01:01:10.959Z,8.67
2019-04-16T01:02:10.885Z,8.72
2019-04-16T01:03:10.827Z,8.70
2019-04-16T01:04:10.778Z,8.64
2019-04-16T01:05:10.725Z,8.64
2019-04-16T01:06:10.689Z,8.64
2019-04-16T01:07:10.622Z,8.59
2019-04-16T01:08:10.566Z,8.55
2019-04-16T01:09:10.507Z,8.45
2019-04-16T01:10:10.452Z,8.57
2019-04-16T01:11:10.424Z,8.55
2019-04-16T01:12:10.349Z,8.52
2019-04-16T01:13:10.294Z,8.45
2019-04-16T01:14:10.244Z,8.44
2019-04-16T01:15:10.195Z,8.47
2019-04-16T01:16:10.160Z,8.47
2019-04-16T01:17:10.085Z,8.47
2019-04-16T01:18:10.029Z,8.47
2019-04-16T01:19:10.948Z,8.44
2019-04-16T01:20:12.670Z,8.49
2019-04-16T01:21:13.758Z,8.42
2019-04-16T01:22:09.821Z,8.48
2019-04-16T01:23:09.777Z,8.47
2019-04-16T01:24:09.785Z,8.57
2019-04-16T01:25:09.788Z,8.57
2019-04-16T01:26:09.626Z,8.49
2019-04-16T01:27:09.537Z,8.59
2019-04-16T01:28:09.496Z,8.48
2019-04-16T01:29:09.437Z,8.45
2019-04-16T01:30:09.385Z,8.41
2019-04-16T01:31:09.356Z,8.41
2019-04-16T01:32:11.236Z,8.41
2019-04-16T01:33:09.378Z,8.41
2019-04-16T01:34:09.201Z,8.30
2019-04-16T01:35:09.116Z,8.33
2019-04-16T01:36:09.086Z,8.31
2019-04-16T01:37:09.015Z,8.42
2019-04-16T01:38:08.949Z,8.34
2019-04-16T01:39:17.398Z,8.31
2019-04-16T01:40:08.847Z,8.38
2019-04-16T01:41:08.819Z,8.31
2019-04-16T01:42:08.736Z,8.29
2019-04-16T01:43:08.680Z,8.34
2019-04-16T01:44:08.637Z,8.33
2019-04-16T01:45:08.574Z,8.31
2019-04-16T01:46:08.546Z,8.36
2019-04-16T01:47:08.471Z,8.41
2019-04-16T01:48:08.698Z,8.30
2019-04-16T01:49:10.289Z,8.34
2019-04-16T01:50:12.997Z,8.33
2019-04-16T01:51:08.283Z,8.29
2019-04-16T01:52:08.204Z,8.27
2019-04-16T01:53:08.150Z,8.38
2019-04-16T01:54:08.102Z,8.36
2019-04-16T01:55:08.039Z,8.34
2019-04-16T01:56:08.012Z,8.34
2019-04-16T01:57:07.935Z,8.34
2019-04-16T01:58:07.878Z,8.31
2019-04-16T01:59:07.820Z,8.24
2019-04-16T02:00:08.569Z,8.27
2019-04-16T02:01:08.137Z,8.34
2019-04-16T02:02:07.666Z,8.21
2019-04-16T02:03:07.605Z,8.20
2019-04-16T02:04:07.558Z,8.23
2019-04-16T02:05:07.503Z,8.24
2019-04-16T02:06:07.451Z,8.21
2019-04-16T02:07:07.493Z,8.13
2019-04-16T02:08:07.343Z,8.16
2019-04-16T02:09:07.284Z,8.18
2019-04-16T02:10:07.974Z,8.23
2019-04-16T02:11:09.591Z,8.13
2019-04-16T02:12:07.153Z,8.12
2019-04-16T02:13:07.066Z,8.11
2019-04-16T02:14:07.011Z,8.12
2019-04-16T02:15:06.963Z,8.11
2019-04-16T02:16:06.909Z,8.05
2019-04-16T02:17:06.881Z,8.08
2019-04-16T02:18:06.798Z,8.04
2019-04-16T02:19:06.747Z,7.97
2019-04-16T02:20:07.405Z,7.97
2019-04-16T02:21:09.597Z,8.04
2019-04-16T02:22:06.609Z,8.01
2019-04-16T02:23:06.536Z,7.93
2019-04-16T02:24:06.473Z,7.97
2019-04-16T02:25:06.427Z,7.91
2019-04-16T02:26:06.366Z,7.88
2019-04-16T02:27:06.334Z,7.93
2019-04-16T02:28:06.344Z,7.91
2019-04-16T02:29:06.204Z,7.79
2019-04-16T02:30:06.161Z,7.86
2019-04-16T02:31:13.742Z,7.79
2019-04-16T02:32:06.065Z,7.76
2019-04-16T02:33:05.984Z,7.78
2019-04-16T02:34:05.938Z,7.76
2019-04-16T02:35:05.880Z,7.73
2019-04-16T02:36:05.829Z,7.83
2019-04-16T02:37:05.801Z,7.69
2019-04-16T02:38:10.467Z,7.76
2019-04-16T02:39:05.683Z,7.73
2019-04-16T02:40:05.621Z,7.66
2019-04-16T02:41:05.735Z,7.66
2019-04-16T02:42:05.557Z,7.62
2019-04-16T02:43:07.397Z,7.57
2019-04-16T02:44:05.410Z,7.60
2019-04-16T02:45:05.341Z,7.62
2019-04-16T02:46:05.279Z,7.56
2019-04-16T02:47:07.275Z,7.56
2019-04-16T02:48:05.202Z,7.56
2019-04-16T02:49:05.122Z,7.62
2019-04-16T02:50:05.161Z,7.57
2019-04-16T02:51:07.848Z,7.46
2019-04-16T02:52:05.173Z,7.46
2019-04-16T02:53:04.905Z,7.54
2019-04-16T02:54:04.848Z,7.49
2019-04-16T02:55:09.140Z,7.46
2019-04-16T02:56:04.747Z,7.39
2019-04-16T02:57:04.730Z,7.41
2019-04-16T02:58:04.626Z,7.41
2019-04-16T02:59:09.661Z,7.42
2019-04-16T03:00:04.527Z,7.39
2019-04-16T03:01:04.474Z,7.36
2019-04-16T03:02:04.435Z,7.28
2019-04-16T03:03:04.359Z,7.28
2019-04-16T03:04:04.301Z,7.25
2019-04-16T03:05:04.254Z,7.21
2019-04-16T03:06:04.195Z,7.18
2019-04-16T03:07:04.564Z,7.21
2019-04-16T03:08:05.047Z,7.18
2019-04-16T03:09:05.583Z,7.20
2019-04-16T03:10:03.982Z,7.18
2019-04-16T03:11:03.999Z,7.10
2019-04-16T03:12:03.893Z,7.18
2019-04-16T03:13:03.816Z,7.07
2019-04-16T03:14:03.760Z,7.05
2019-04-16T03:15:03.696Z,7.03
2019-04-16T03:16:06.001Z,7.03
2019-04-16T03:17:03.617Z,7.07
2019-04-16T03:18:03.539Z,7.08
2019-04-16T03:19:03.494Z,7.02
2019-04-16T03:20:03.641Z,6.95
2019-04-16T03:21:03.376Z,6.89
2019-04-16T03:22:03.761Z,6.99
2019-04-16T03:23:06.084Z,6.91
2019-04-16T03:24:08.011Z,6.95
2019-04-16T03:25:03.154Z,6.96
2019-04-16T03:26:03.104Z,6.95
2019-04-16T03:27:04.618Z,6.98
2019-04-16T03:28:03.011Z,6.89
2019-04-16T03:29:02.937Z,6.89
2019-04-16T03:30:04.920Z,6.93
2019-04-16T03:31:07.495Z,6.92
2019-04-16T03:32:02.766Z,6.89
2019-04-16T03:33:10.467Z,6.92
2019-04-16T03:34:02.665Z,7.00
2019-04-16T03:35:02.604Z,7.03
2019-04-16T03:36:02.550Z,7.05
2019-04-16T03:37:03.109Z,7.05
2019-04-16T03:38:05.399Z,7.00
2019-04-16T03:39:02.384Z,6.99
2019-04-16T03:40:15.187Z,6.95
2019-04-16T03:41:02.272Z,6.92
2019-04-16T03:42:02.211Z,6.92
2019-04-16T03:43:04.006Z,6.96
2019-04-16T03:44:04.103Z,6.89
2019-04-16T03:45:02.058Z,6.78
2019-04-16T03:46:01.998Z,6.80
2019-04-16T03:47:01.949Z,6.84
2019-04-16T03:48:01.907Z,6.85
2019-04-16T03:49:01.833Z,6.81
2019-04-16T03:50:01.795Z,6.85
2019-04-16T03:51:03.651Z,6.80
2019-04-16T03:52:04.825Z,6.78
2019-04-16T03:53:01.638Z,6.75
2019-04-16T03:54:04.698Z,6.80
2019-04-16T03:55:01.505Z,6.77
2019-04-16T03:56:01.440Z,6.78
2019-04-16T03:57:02.065Z,6.73
2019-04-16T03:58:05.224Z,6.75
2019-04-16T03:59:01.285Z,6.75
2019-04-16T04:00:01.226Z,6.73
2019-04-16T04:01:01.177Z,6.71
2019-04-16T04:02:01.120Z,6.63
2019-04-16T04:03:01.085Z,6.63
2019-04-16T04:04:01.011Z,6.62
2019-04-16T04:05:04.332Z,6.65
2019-04-16T04:06:03.541Z,6.59
2019-04-16T04:07:00.836Z,6.65
2019-04-16T04:08:00.808Z,6.70
2019-04-16T04:09:00.725Z,6.75
2019-04-16T04:10:00.677Z,6.66
2019-04-16T04:11:00.626Z,6.63
2019-04-16T04:12:00.565Z,6.60
2019-04-16T04:13:00.535Z,6.59
2019-04-16T04:14:00.466Z,6.66
2019-04-16T04:15:00.405Z,6.67
2019-04-16T04:16:01.520Z,6.57
2019-04-16T04:17:05.197Z,6.63
2019-04-16T04:18:00.250Z,6.60
2019-04-16T04:19:00.175Z,6.71
2019-04-16T04:20:00.121Z,6.65
2019-04-16T04:21:00.068Z,6.70
2019-04-16T04:22:00.009Z,6.70
2019-04-16T04:22:59.988Z,6.70
2019-04-16T04:24:00.680Z,6.67
2019-04-16T04:25:03.906Z,6.77
2019-04-16T04:25:59.797Z,6.78
2019-04-16T04:26:59.735Z,6.81
2019-04-16T04:27:59.700Z,6.74
2019-04-16T04:28:59.628Z,6.80
2019-04-16T04:29:59.571Z,6.74
2019-04-16T04:31:00.892Z,6.75
2019-04-16T04:32:03.072Z,6.74
2019-04-16T04:32:59.423Z,6.70
2019-04-16T04:33:59.352Z,6.65
2019-04-16T04:34:59.288Z,6.66
2019-04-16T04:35:59.238Z,6.73
2019-04-16T04:37:00.016Z,6.66
2019-04-16T04:38:00.883Z,6.65
2019-04-16T04:38:59.077Z,6.66
2019-04-16T04:39:59.016Z,6.67
2019-04-16T04:40:59.872Z,6.60
2019-04-16T04:41:58.901Z,6.60
2019-04-16T04:43:00.878Z,6.59
2019-04-16T04:44:03.888Z,6.57
2019-04-16T04:44:58.752Z,6.57
2019-04-16T04:45:58.685Z,6.71
2019-04-16T04:46:58.628Z,6.63
2019-04-16T04:47:58.572Z,6.59
2019-04-16T04:49:00.213Z,6.62
2019-04-16T04:49:59.503Z,6.53
2019-04-16T04:50:58.406Z,6.63
2019-04-16T04:51:58.351Z,6.70
2019-04-16T04:52:58.300Z,6.60
2019-04-16T04:53:58.263Z,6.57
2019-04-16T04:54:58.185Z,6.56
2019-04-16T04:55:58.124Z,6.57
2019-04-16T04:56:59.260Z,6.60
2019-04-16T04:58:02.486Z,6.70
2019-04-16T04:58:57.995Z,6.49
2019-04-16T04:59:57.907Z,6.60
2019-04-16T05:00:57.856Z,6.67
2019-04-16T05:01:57.800Z,6.65
2019-04-16T05:02:57.745Z,6.71
2019-04-16T05:03:57.710Z,6.65
2019-04-16T05:04:57.632Z,6.67
2019-04-16T05:05:57.579Z,6.65
2019-04-16T05:06:58.050Z,6.74
2019-04-16T05:08:00.003Z,6.65
2019-04-16T05:08:57.640Z,6.67
2019-04-16T05:09:57.354Z,6.66
2019-04-16T05:10:59.805Z,6.67
2019-04-16T05:11:57.249Z,6.67
2019-04-16T05:12:57.205Z,6.62
2019-04-16T05:13:57.180Z,6.66
2019-04-16T05:14:58.473Z,6.62
2019-04-16T05:15:58.324Z,6.63
2019-04-16T05:16:56.977Z,6.62
2019-04-16T05:17:56.926Z,6.65
2019-04-16T05:18:56.898Z,6.66
2019-04-16T05:19:56.808Z,6.71
2019-04-16T05:20:56.755Z,6.70
2019-04-16T05:21:56.702Z,6.71
2019-04-16T05:22:58.078Z,6.74
2019-04-16T05:23:57.593Z,6.66
2019-04-16T05:25:00.870Z,6.73
2019-04-16T05:25:56.479Z,6.62
2019-04-16T05:26:56.558Z,6.74
2019-04-16T05:27:56.365Z,6.66
2019-04-16T05:28:56.335Z,6.67
2019-04-16T05:29:56.258Z,6.75
2019-04-16T05:30:56.211Z,6.78
2019-04-16T05:31:57.289Z,6.73
2019-04-16T05:32:56.091Z,6.78
2019-04-16T05:33:59.471Z,6.78
2019-04-16T05:34:55.981Z,6.78
2019-04-16T05:35:55.927Z,6.75
2019-04-16T05:36:55.867Z,6.81
2019-04-16T05:37:55.819Z,6.81
2019-04-16T05:38:56.387Z,6.84
2019-04-16T05:39:58.548Z,6.78
2019-04-16T05:40:55.648Z,6.93
2019-04-16T05:41:55.643Z,6.95
2019-04-16T05:42:55.838Z,7.05
2019-04-16T05:43:55.513Z,7.00
2019-04-16T05:44:55.423Z,7.11
2019-04-16T05:45:55.377Z,7.14
2019-04-16T05:46:55.317Z,7.21
2019-04-16T05:47:55.266Z,7.21
2019-04-16T05:48:55.236Z,7.38
2019-04-16T05:49:58.107Z,7.46
2019-04-16T05:50:59.747Z,7.57
2019-04-16T05:51:55.047Z,7.56
2019-04-16T05:52:54.993Z,7.72
2019-04-16T05:53:54.960Z,7.76
2019-04-16T05:54:54.886Z,7.76
2019-04-16T05:55:57.294Z,7.88
2019-04-16T05:56:55.498Z,8.02
2019-04-16T05:57:57.902Z,8.15
2019-04-16T05:58:54.688Z,8.16
2019-04-16T05:59:54.613Z,8.26
2019-04-16T06:00:54.557Z,8.31
2019-04-16T06:01:57.222Z,8.29
2019-04-16T06:02:54.446Z,8.39
2019-04-16T06:03:54.419Z,8.31
2019-04-16T06:04:55.842Z,8.42
2019-04-16T06:05:56.313Z,8.51
2019-04-16T06:06:54.238Z,8.55
2019-04-16T06:07:54.175Z,8.59
2019-04-16T06:08:56.136Z,8.72
2019-04-16T06:09:54.066Z,8.73
2019-04-16T06:10:57.218Z,8.75
2019-04-16T06:11:53.964Z,8.70
2019-04-16T06:12:53.908Z,8.87
2019-04-16T06:13:53.881Z,8.91
2019-04-16T06:14:54.058Z,9.06
2019-04-16T06:15:54.062Z,8.95
2019-04-16T06:16:56.981Z,9.08
2019-04-16T06:17:53.644Z,9.11
2019-04-16T06:18:53.585Z,9.14
2019-04-16T06:19:53.552Z,9.29
2019-04-16T06:20:53.790Z,9.33
2019-04-16T06:21:56.405Z,9.42
2019-04-16T06:22:53.376Z,9.44
2019-04-16T06:23:53.322Z,9.52
2019-04-16T06:24:53.296Z,9.51
2019-04-16T06:25:53.217Z,9.42
2019-04-16T06:26:53.165Z,9.47
2019-04-16T06:27:53.112Z,9.55
2019-04-16T06:28:56.366Z,9.54
2019-04-16T06:29:53.035Z,9.54
2019-04-16T06:30:52.947Z,9.47
2019-04-16T06:31:52.921Z,9.44
2019-04-16T06:32:52.848Z,9.49
2019-04-16T06:33:52.794Z,9.52
2019-04-16T06:34:52.763Z,9.58
2019-04-16T06:35:52.687Z,9.61
2019-04-16T06:36:52.636Z,9.64
2019-04-16T06:37:52.589Z,9.69
2019-04-16T06:38:54.998Z,9.80
2019-04-16T06:39:52.520Z,9.88
2019-04-16T06:40:52.422Z,9.93
2019-04-16T06:41:52.716Z,9.94
2019-04-16T06:42:54.114Z,10.04
2019-04-16T06:43:52.263Z,9.90
2019-04-16T06:44:52.233Z,9.94
2019-04-16T06:45:52.157Z,9.94
2019-04-16T06:46:52.113Z,9.97
2019-04-16T06:47:52.054Z,10.01
2019-04-16T06:48:52.012Z,10.06
2019-04-16T06:49:52.158Z,10.09
2019-04-16T06:50:51.895Z,10.10
2019-04-16T06:51:51.846Z,10.06
2019-04-16T06:52:51.795Z,9.97
2019-04-16T06:53:53.997Z,9.91
2019-04-16T06:54:51.710Z,9.91
2019-04-16T06:55:51.636Z,9.97
2019-04-16T06:56:51.586Z,9.98
2019-04-16T06:57:51.540Z,9.88
2019-04-16T06:58:54.643Z,10.02
2019-04-16T06:59:51.449Z,10.08
2019-04-16T07:00:51.378Z,10.16
2019-04-16T07:01:51.331Z,10.19
2019-04-16T07:03:02.297Z,10.28
2019-04-16T07:03:51.216Z,10.27
2019-04-16T07:04:51.194Z,10.35
2019-04-16T07:05:51.116Z,10.48
2019-04-16T07:06:51.066Z,10.40
2019-04-16T07:07:51.007Z,10.46
2019-04-16T07:08:50.955Z,10.52
2019-04-16T07:09:50.937Z,10.62
2019-04-16T07:10:50.856Z,10.53
2019-04-16T07:11:54.672Z,10.60
2019-04-16T07:12:50.802Z,10.74
2019-04-16T07:13:50.703Z,10.71
2019-04-16T07:14:50.674Z,10.82
2019-04-16T07:15:53.261Z,10.85
2019-04-16T07:16:50.536Z,11.00
2019-04-16T07:17:50.488Z,11.05
2019-04-16T07:18:50.429Z,11.15
2019-04-16T07:19:50.412Z,11.20
2019-04-16T07:20:50.340Z,11.23
2019-04-16T07:21:50.284Z,11.29
2019-04-16T07:22:52.732Z,11.23
2019-04-16T07:23:50.193Z,11.33
2019-04-16T07:24:50.155Z,11.38
2019-04-16T07:25:50.295Z,11.48
2019-04-16T07:26:50.046Z,11.62
2019-04-16T07:27:52.741Z,11.63
2019-04-16T07:28:49.962Z,11.65
2019-04-16T07:29:50.001Z,11.65
2019-04-16T07:30:49.893Z,11.59
2019-04-16T07:31:52.293Z,11.77
2019-04-16T07:32:49.731Z,11.69
2019-04-16T07:33:49.662Z,11.84
2019-04-16T07:34:49.609Z,11.88
2019-04-16T07:35:49.579Z,11.96
2019-04-16T07:36:49.516Z,11.96
2019-04-16T07:37:49.452Z,11.88
2019-04-16T07:38:49.399Z,11.88
2019-04-16T07:39:49.346Z,11.86
2019-04-16T07:40:49.326Z,11.95
2019-04-16T07:41:49.260Z,11.97
2019-04-16T07:42:52.115Z,11.96
2019-04-16T07:43:49.299Z,12.05
2019-04-16T07:44:49.101Z,11.96
2019-04-16T07:45:49.058Z,12.05
2019-04-16T07:46:49.082Z,12.10
2019-04-16T07:47:51.786Z,12.00
2019-04-16T07:48:51.463Z,12.07
2019-04-16T07:49:48.835Z,12.13
2019-04-16T07:50:48.812Z,12.13
2019-04-16T07:51:48.734Z,12.17
2019-04-16T07:52:48.681Z,12.25
2019-04-16T07:53:48.639Z,12.17
2019-04-16T07:54:48.583Z,12.22
2019-04-16T07:55:48.553Z,12.21
2019-04-16T07:56:48.484Z,12.22
2019-04-16T07:57:48.422Z,12.10
2019-04-16T07:58:48.378Z,12.17
2019-04-16T07:59:48.360Z,12.22
2019-04-16T08:00:48.307Z,12.06
2019-04-16T08:01:48.852Z,11.96
2019-04-16T08:02:50.756Z,11.86
2019-04-16T08:03:48.117Z,12.00
2019-04-16T08:04:48.074Z,11.99
2019-04-16T08:05:48.043Z,12.10
2019-04-16T08:06:47.971Z,12.10
2019-04-16T08:07:49.760Z,12.22
2019-04-16T08:08:47.860Z,12.20
2019-04-16T08:09:47.822Z,12.32
2019-04-16T08:10:47.789Z,12.24
2019-04-16T08:11:47.718Z,12.18
2019-04-16T08:12:47.658Z,12.21
2019-04-16T08:13:47.611Z,12.35
2019-04-16T08:14:47.561Z,12.28
2019-04-16T08:15:47.544Z,12.40
2019-04-16T08:16:48.152Z,12.43
2019-04-16T08:17:47.411Z,12.47
2019-04-16T08:18:47.360Z,12.55
2019-04-16T08:19:49.062Z,12.54
2019-04-16T08:21:00.526Z,12.36
2019-04-16T08:21:47.200Z,12.46
2019-04-16T08:22:48.156Z,12.39
2019-04-16T08:23:51.717Z,12.50
2019-04-16T08:24:47.053Z,12.46
2019-04-16T08:25:47.029Z,12.54
2019-04-16T08:26:46.943Z,12.58
2019-04-16T08:27:47.288Z,12.55
2019-04-16T08:28:46.840Z,12.64
2019-04-16T08:29:46.865Z,12.71
2019-04-16T08:30:46.771Z,12.72
2019-04-16T08:31:46.690Z,12.65
2019-04-16T08:32:48.914Z,12.75
2019-04-16T08:33:46.592Z,12.65
2019-04-16T08:34:46.540Z,12.54
2019-04-16T08:35:46.516Z,12.57
2019-04-16T08:36:46.440Z,12.50
2019-04-16T08:37:49.059Z,12.40
2019-04-16T08:38:46.338Z,12.53
2019-04-16T08:39:46.287Z,12.51
2019-04-16T08:40:46.889Z,12.58
2019-04-16T08:41:46.184Z,12.63
2019-04-16T08:42:46.136Z,12.69
2019-04-16T08:43:46.078Z,12.78
2019-04-16T08:44:46.029Z,12.78
2019-04-16T08:45:46.003Z,12.85
2019-04-16T08:46:45.932Z,12.96
2019-04-16T08:47:46.113Z,12.96
2019-04-16T08:48:48.966Z,13.05
2019-04-16T08:49:45.777Z,13.09
2019-04-16T08:50:49.041Z,13.15
2019-04-16T08:51:45.714Z,13.13
2019-04-16T08:52:45.626Z,13.19
2019-04-16T08:53:46.789Z,13.26
2019-04-16T08:54:50.061Z,13.33
2019-04-16T08:55:45.511Z,13.50
2019-04-16T08:56:45.689Z,13.52
2019-04-16T08:57:46.882Z,13.47
2019-04-16T08:58:45.323Z,13.49
2019-04-16T08:59:45.274Z,13.39
2019-04-16T09:00:46.403Z,13.49
2019-04-16T09:01:45.193Z,13.47
2019-04-16T09:02:45.116Z,13.55
2019-04-16T09:03:45.071Z,13.45
2019-04-16T09:04:45.013Z,13.60
2019-04-16T09:05:44.967Z,13.63
2019-04-16T09:06:46.236Z,13.67
2019-04-16T09:07:44.868Z,13.68
2019-04-16T09:08:44.812Z,13.67
2019-04-16T09:09:44.770Z,13.67
2019-04-16T09:10:44.938Z,13.71
2019-04-16T09:11:44.692Z,13.70
2019-04-16T09:12:50.751Z,13.77
2019-04-16T09:13:47.306Z,13.83
2019-04-16T09:14:44.512Z,13.82
2019-04-16T09:15:44.465Z,13.85
2019-04-16T09:16:44.433Z,13.57
2019-04-16T09:17:44.371Z,13.67
2019-04-16T09:18:44.315Z,13.65
2019-04-16T09:19:44.272Z,13.63
2019-04-16T09:20:44.212Z,13.63
2019-04-16T09:21:44.556Z,13.67
2019-04-16T09:22:49.477Z,13.70
2019-04-16T09:23:44.066Z,13.68
2019-04-16T09:24:44.011Z,13.70
2019-04-16T09:25:45.852Z,13.75
2019-04-16T09:26:43.942Z,13.92
2019-04-16T09:27:43.861Z,14.00
2019-04-16T09:28:43.806Z,14.03
2019-04-16T09:29:43.760Z,14.05
2019-04-16T09:31:41.586Z,14.05
2019-04-16T09:32:41.517Z,14.00
2019-04-16T09:33:41.461Z,13.97
2019-04-16T09:34:41.438Z,14.07
2019-04-16T09:35:41.361Z,14.13
2019-04-16T09:36:41.334Z,14.32
2019-04-16T09:37:41.263Z,14.30
2019-04-16T09:38:45.177Z,14.56
2019-04-16T09:39:41.217Z,14.56
2019-04-16T09:40:41.114Z,14.65
2019-04-16T09:41:41.087Z,14.74
2019-04-16T09:42:41.010Z,14.77
2019-04-16T09:43:40.963Z,14.82
2019-04-16T09:44:40.911Z,14.89
2019-04-16T09:45:40.863Z,14.89
2019-04-16T09:46:50.831Z,14.85
2019-04-16T09:47:40.761Z,14.87
2019-04-16T09:48:40.720Z,14.87
2019-04-16T09:49:40.658Z,14.77
2019-04-16T09:50:46.764Z,14.73
2019-04-16T09:51:40.583Z,14.59
2019-04-16T09:52:40.508Z,14.65
2019-04-16T09:53:41.009Z,14.63
2019-04-16T09:54:41.497Z,14.65
2019-04-16T09:55:40.358Z,14.65
2019-04-16T09:56:40.334Z,14.63
2019-04-16T09:57:40.263Z,14.63
2019-04-16T09:58:42.581Z,14.53
2019-04-16T09:59:40.171Z,14.48
2019-04-16T10:00:40.116Z,14.61
2019-04-16T10:01:40.092Z,14.61
2019-04-16T10:02:40.015Z,14.68
2019-04-16T10:03:39.969Z,14.66
2019-04-16T10:04:39.915Z,14.70
2019-04-16T10:05:39.868Z,14.65
2019-04-16T10:06:39.841Z,14.81
2019-04-16T10:07:41.024Z,14.73
2019-04-16T10:08:44.485Z,14.84
2019-04-16T10:09:39.684Z,14.81
2019-04-16T10:10:39.619Z,15.00
2019-04-16T10:11:39.583Z,15.06
2019-04-16T10:12:39.544Z,15.14
2019-04-16T10:13:39.469Z,15.17
2019-04-16T10:14:39.436Z,15.12
2019-04-16T10:15:39.371Z,15.22
2019-04-16T10:16:39.334Z,15.25
2019-04-16T10:17:39.299Z,15.32
2019-04-16T10:18:39.245Z,15.30
2019-04-16T10:19:42.998Z,15.33
2019-04-16T10:20:40.432Z,15.32
2019-04-16T10:21:39.074Z,15.32
2019-04-16T10:22:39.047Z,15.40
2019-04-16T10:23:38.986Z,15.52
2019-04-16T10:24:38.948Z,15.57
2019-04-16T10:25:38.901Z,15.61
2019-04-16T10:26:38.829Z,15.70
2019-04-16T10:27:38.813Z,15.76
2019-04-16T10:28:38.752Z,15.76
2019-04-16T10:29:38.690Z,15.77
2019-04-16T10:30:38.630Z,15.91
2019-04-16T10:31:38.581Z,15.88
2019-04-16T10:32:38.560Z,15.97
2019-04-16T10:33:38.476Z,15.92
2019-04-16T10:34:38.434Z,15.91
2019-04-16T10:35:38.393Z,16.01
2019-04-16T10:36:38.352Z,15.91
2019-04-16T10:37:38.307Z,15.95
2019-04-16T10:38:38.246Z,15.90
2019-04-16T10:39:38.208Z,15.87
2019-04-16T10:40:38.142Z,15.92
2019-04-16T10:41:38.095Z,15.75
2019-04-16T10:42:38.176Z,15.76
2019-04-16T10:43:44.463Z,15.70
2019-04-16T10:44:37.947Z,15.72
2019-04-16T10:45:37.902Z,15.65
2019-04-16T10:46:37.845Z,15.77
2019-04-16T10:47:37.824Z,15.77
2019-04-16T10:48:37.750Z,15.79
2019-04-16T10:49:37.716Z,15.82
2019-04-16T10:50:37.644Z,15.83
2019-04-16T10:51:37.623Z,15.77
2019-04-16T10:52:37.590Z,15.83
2019-04-16T10:53:37.497Z,15.83
2019-04-16T10:54:38.253Z,15.82
2019-04-16T10:55:37.411Z,15.80
2019-04-16T10:56:37.386Z,15.83
2019-04-16T10:57:38.508Z,15.95
2019-04-16T10:58:37.259Z,15.83
2019-04-16T10:59:37.218Z,15.76
2019-04-16T11:00:37.158Z,15.94
2019-04-16T11:01:37.110Z,15.85
2019-04-16T11:02:37.092Z,15.77
2019-04-16T11:03:37.008Z,15.68
2019-04-16T11:04:36.990Z,15.64
2019-04-16T11:05:36.922Z,15.73
2019-04-16T11:06:36.861Z,15.75
2019-04-16T11:07:36.988Z,15.87
2019-04-16T11:08:36.770Z,15.90
2019-04-16T11:09:36.745Z,15.91
2019-04-16T11:10:36.848Z,16.05
2019-04-16T11:11:36.642Z,16.02
2019-04-16T11:12:36.618Z,16.09
2019-04-16T11:13:36.544Z,16.24
2019-04-16T11:14:36.484Z,16.13
2019-04-16T11:15:36.434Z,16.16
2019-04-16T11:16:36.396Z,16.34
2019-04-16T11:17:36.354Z,16.31
2019-04-16T11:18:36.324Z,16.35
2019-04-16T11:19:36.246Z,16.46
2019-04-16T11:20:36.188Z,16.39
2019-04-16T11:21:36.154Z,16.39
2019-04-16T11:22:36.116Z,16.35
2019-04-16T11:23:36.058Z,16.36
2019-04-16T11:24:36.000Z,16.35
2019-04-16T11:25:35.935Z,16.34
2019-04-16T11:26:35.881Z,16.43
2019-04-16T11:27:35.917Z,16.39
2019-04-16T11:28:35.797Z,16.47
2019-04-16T11:29:38.388Z,16.57
2019-04-16T11:30:35.765Z,16.47
2019-04-16T11:31:35.671Z,16.43
2019-04-16T11:32:39.081Z,16.34
2019-04-16T11:33:35.594Z,16.34
2019-04-16T11:34:35.510Z,16.41
2019-04-16T11:35:35.451Z,16.34
2019-04-16T11:36:35.396Z,16.41
2019-04-16T11:37:36.362Z,16.54
2019-04-16T11:38:35.333Z,16.44
2019-04-16T11:39:35.259Z,16.47
2019-04-16T11:40:35.201Z,16.47
2019-04-16T11:41:35.147Z,16.51
2019-04-16T11:42:35.130Z,16.49
2019-04-16T11:43:35.085Z,16.56
2019-04-16T11:44:35.045Z,16.57
2019-04-16T11:45:34.969Z,16.59
2019-04-16T11:46:34.915Z,16.61
2019-04-16T11:47:35.002Z,16.65
2019-04-16T11:48:37.463Z,16.71
2019-04-16T11:49:34.897Z,16.72
2019-04-16T11:50:36.093Z,16.69
2019-04-16T11:51:34.707Z,16.71
2019-04-16T11:52:34.616Z,16.71
2019-04-16T11:53:34.598Z,16.75
2019-04-16T11:54:34.519Z,16.89
2019-04-16T11:55:34.467Z,16.80
2019-04-16T11:56:34.424Z,16.90
2019-04-16T11:57:34.391Z,16.94
2019-04-16T11:58:34.346Z,16.99
2019-04-16T11:59:37.896Z,16.99
2019-04-16T12:00:34.222Z,16.80
2019-04-16T12:01:34.172Z,16.80
2019-04-16T12:02:34.155Z,16.83
2019-04-16T12:03:36.540Z,16.87
2019-04-16T12:04:34.045Z,16.83
2019-04-16T12:05:33.999Z,16.79
2019-04-16T12:06:33.962Z,16.86
2019-04-16T12:07:33.901Z,16.76
2019-04-16T12:08:33.860Z,16.90
2019-04-16T12:09:33.789Z,17.01
2019-04-16T12:10:33.767Z,16.96
2019-04-16T12:11:33.686Z,16.89
2019-04-16T12:12:33.693Z,16.91
2019-04-16T12:13:33.638Z,16.93
2019-04-16T12:14:34.842Z,16.90
2019-04-16T12:15:33.517Z,16.84
2019-04-16T12:16:33.483Z,16.89
2019-04-16T12:17:36.241Z,16.91
2019-04-16T12:18:33.436Z,16.87
2019-04-16T12:19:33.298Z,16.93
2019-04-16T12:20:33.273Z,17.05
2019-04-16T12:21:33.257Z,16.98
2019-04-16T12:22:33.211Z,16.98
2019-04-16T12:23:33.172Z,17.05
2019-04-16T12:24:33.162Z,17.02
2019-04-16T12:25:33.031Z,17.09
2019-04-16T12:26:33.014Z,17.16
2019-04-16T12:27:32.922Z,17.16
2019-04-16T12:28:32.888Z,17.06
2019-04-16T12:29:32.830Z,17.02
2019-04-16T12:30:32.818Z,16.94
2019-04-16T12:31:32.754Z,17.01
2019-04-16T12:32:32.697Z,17.01
2019-04-16T12:33:32.644Z,16.94
2019-04-16T12:34:32.575Z,17.05
2019-04-16T12:35:34.726Z,17.12
2019-04-16T12:36:32.491Z,17.11
2019-04-16T12:37:37.383Z,17.16
2019-04-16T12:38:32.435Z,17.08
2019-04-16T12:39:35.609Z,17.19
2019-04-16T12:40:32.281Z,17.14
2019-04-16T12:41:32.232Z,17.16
2019-04-16T12:42:32.215Z,17.20
2019-04-16T12:43:32.196Z,17.27
2019-04-16T12:44:44.709Z,17.33
2019-04-16T12:45:32.036Z,17.37
2019-04-16T12:46:32.007Z,17.31
2019-04-16T12:47:31.949Z,17.31
2019-04-16T12:48:32.430Z,17.29
2019-04-16T12:49:31.871Z,17.24
2019-04-16T12:50:31.830Z,17.30
2019-04-16T12:51:31.785Z,17.38
2019-04-16T12:52:31.691Z,17.37
2019-04-16T12:53:31.683Z,17.31
2019-04-16T12:54:31.683Z,17.48
2019-04-16T12:55:32.541Z,17.46
2019-04-16T12:56:31.499Z,17.48
2019-04-16T12:57:31.462Z,17.49
2019-04-16T12:58:31.399Z,17.45
2019-04-16T12:59:31.380Z,17.49
2019-04-16T13:00:31.681Z,17.48
2019-04-16T13:01:33.420Z,17.45
2019-04-16T13:02:31.209Z,17.46
2019-04-16T13:03:31.159Z,17.51
2019-04-16T13:04:31.129Z,17.49
2019-04-16T13:05:31.176Z,17.49
2019-04-16T13:06:31.015Z,17.56